Time;durP1;ratioP1;P1;durP2;ratioP2;P2;SDS_P1;SDS_P2;PMS_P1;PMS_P2;Temp;Humidity;BMP_temperature;BMP_pressure;BME280_temperature;BME280_humidity;BME280_pressure;Samples;Min_cycle;Max_cycle;Signal;HPM_P1;HPM_P2
2021/12/02 00:01:14;;;;;;;36.88;13.72;;;;;;;-3.76;100.00;99042.30;1734826;81;21089;-80
2021/12/02 00:03:41;;;;;;;29.05;12.20;;;;;;;-3.73;100.00;99037.58;1717916;83;21093;-79
2021/12/02 00:06:10;;;;;;;29.02;11.43;;;;;;;-3.71;100.00;99030.30;1691969;83;21053;-78
2021/12/02 00:08:37;;;;;;;26.35;11.97;;;;;;;-3.68;100.00;99034.18;1720196;83;22161;-79
2021/12/02 00:11:05;;;;;;;32.30;13.30;;;;;;;-3.65;100.00;99023.89;1756580;81;21092;-78
2021/12/02 00:13:42;;;;;;;28.00;11.38;;;;;;;-3.62;100.00;99016.16;1756662;81;21102;-79
2021/12/02 00:16:18;;;;;;;24.63;11.68;;;;;;;-3.59;99.78;99013.62;1756351;81;21055;-80
2021/12/02 00:21:23;;;;;;;25.48;11.93;;;;;;;-3.45;100.00;99012.76;1720205;83;22206;-80
2021/12/02 00:24:06;;;;;;;26.20;11.35;;;;;;;-3.42;99.12;99002.48;1756608;81;21116;-79
2021/12/02 00:26:36;;;;;;;21.77;10.43;;;;;;;-3.38;99.27;98999.06;1730134;81;21061;-82
2021/12/02 00:29:07;;;;;;;24.10;10.10;;;;;;;-3.33;98.68;98998.63;1749325;82;21053;-80
2021/12/02 00:31:38;;;;;;;;;;;;;;;-3.28;97.23;99006.36;1731079;82;21063;-81
2021/12/02 00:34:09;;;;;;;22.13;9.18;;;;;;;-3.25;96.10;99004.63;1726024;83;20722;-81
2021/12/02 00:36:38;;;;;;;;;;;;;;;-3.22;96.89;99003.77;1737637;82;21054;-82
2021/12/02 00:39:15;;;;;;;25.40;10.45;;;;;;;-3.19;94.71;99011.52;1737957;82;20170;-81
2021/12/02 00:41:42;;;;;;;26.27;11.38;;;;;;;-3.18;96.24;99002.48;1737966;82;21065;-81
2021/12/02 00:44:08;;;;;;;32.00;10.75;;;;;;;-3.13;96.17;99005.49;1737799;82;21622;-80
2021/12/02 00:46:35;;;;;;;28.45;11.53;;;;;;;-3.06;96.34;99001.65;1737812;82;21170;-77
2021/12/02 00:49:07;;;;;;;27.77;10.90;;;;;;;-3.01;96.54;99004.22;1737630;82;21045;-78
2021/12/02 00:51:35;;;;;;;31.15;11.63;;;;;;;-2.98;94.94;99004.21;1737643;82;21133;-78
2021/12/02 00:54:05;;;;;;;23.02;9.65;;;;;;;-2.93;95.67;98984.45;1737507;82;21037;-77
2021/12/02 00:56:34;;;;;;;20.80;9.43;;;;;;;-2.89;94.72;98975.86;1737606;82;21071;-77
2021/12/02 00:59:00;;;;;;;13.48;5.72;;;;;;;-2.83;92.17;98973.70;1737972;82;21558;-78
2021/12/02 01:01:33;;;;;;;12.30;6.15;;;;;;;-2.78;89.76;98962.53;1732045;82;21557;-78
2021/12/02 01:03:58;;;;;;;13.98;6.20;;;;;;;-2.69;89.86;98954.34;1778645;80;21084;-81
2021/12/02 01:06:25;;;;;;;14.30;5.85;;;;;;;-2.60;88.35;98968.48;1779418;80;21620;-81
2021/12/02 01:08:52;;;;;;;13.85;5.60;;;;;;;-2.53;89.64;98953.47;1779682;80;21069;-81
2021/12/02 01:11:19;;;;;;;13.28;5.72;;;;;;;-2.47;87.84;98952.57;1779481;80;21817;-81
2021/12/02 01:13:46;;;;;;;10.75;5.33;;;;;;;-2.43;87.07;98952.55;1779396;80;21033;-79
2021/12/02 01:16:13;;;;;;;10.10;4.50;;;;;;;;;;1779227;80;21721;-82
2021/12/02 01:18:40;;;;;;;13.15;5.45;;;;;;;-2.35;87.17;98943.48;1779536;80;21036;-81
2021/12/02 01:21:06;;;;;;;13.10;5.30;;;;;;;-2.30;88.68;98938.31;1779504;80;21508;-77
2021/12/02 01:23:36;;;;;;;11.95;5.40;;;;;;;-2.28;87.42;98944.33;1742512;82;21448;-76
2021/12/02 01:26:07;;;;;;;9.55;4.83;;;;;;;-2.28;86.46;98923.70;1742138;82;21539;-76
2021/12/02 01:28:34;;;;;;;6.47;3.33;;;;;;;-2.27;86.93;98927.56;1711353;83;26578;-76
2021/12/02 01:31:01;;;;;;;11.15;5.08;;;;;;;-2.28;85.69;98915.95;1742463;82;20998;-76
2021/12/02 01:33:28;;;;;;;10.43;4.05;;;;;;;-2.24;87.51;98913.80;1711547;83;21089;-76
2021/12/02 01:36:00;;;;;;;10.88;4.92;;;;;;;-2.23;86.47;98911.63;1742345;82;21542;-77
2021/12/02 01:38:28;;;;;;;12.80;5.33;;;;;;;-2.23;86.47;98910.34;1741504;82;21098;-76
2021/12/02 01:40:56;;;;;;;13.15;5.30;;;;;;;-2.22;87.96;98900.47;1742052;82;21082;-76
2021/12/02 01:43:46;;;;;;;14.58;6.58;;;;;;;-2.22;87.91;98900.47;1742480;82;21609;-77
2021/12/02 01:46:16;;;;;;;13.88;5.90;;;;;;;-2.21;88.33;98898.30;1742003;82;21094;-77
2021/12/02 01:48:45;;;;;;;;;;;;;;;-2.23;89.04;98896.16;1745016;82;22117;-76
2021/12/02 01:51:12;;;;;;;14.15;6.20;;;;;;;-2.24;88.88;98908.64;1721283;82;20147;-76
2021/12/02 01:53:41;;;;;;;16.87;6.17;;;;;;;-2.27;89.43;98894.05;1742313;82;21013;-76
2021/12/02 01:56:13;;;;;;;13.22;6.30;;;;;;;-2.28;89.43;98888.88;1742258;82;21074;-76
2021/12/02 01:58:47;;;;;;;9.45;5.50;;;;;;;-2.33;89.68;98879.44;1742678;82;21114;-77
2021/12/02 02:01:25;;;;;;;10.93;4.80;;;;;;;-2.30;89.90;98888.03;1742266;82;22225;-76
2021/12/02 02:03:53;;;;;;;14.47;5.87;;;;;;;-2.30;89.92;98888.03;1753985;81;21067;-76
2021/12/02 02:06:36;;;;;;;11.28;5.22;;;;;;;-2.29;90.01;98882.02;1755734;81;21066;-76
2021/12/02 02:09:05;;;;;;;10.10;5.03;;;;;;;-2.27;90.32;98886.75;1755887;81;21059;-76
2021/12/02 02:11:31;;;;;;;8.75;4.20;;;;;;;-2.26;90.35;98884.58;1755802;81;21089;-76
2021/12/02 02:13:59;;;;;;;11.10;5.58;;;;;;;-2.26;90.38;98878.13;1755635;81;21126;-76
2021/12/02 02:16:27;;;;;;;11.08;4.95;;;;;;;-2.22;90.98;98881.13;1755453;81;21544;-76
2021/12/02 02:18:53;;;;;;;14.73;4.58;;;;;;;-2.22;90.69;98883.27;1755358;81;21080;-76
2021/12/02 02:21:22;;;;;;;8.55;4.83;;;;;;;-2.20;91.23;98879.39;1723849;83;21605;-79
2021/12/02 02:23:57;;;;;;;10.70;6.28;;;;;;;-2.18;91.07;98880.25;1755867;81;22186;-78
2021/12/02 02:26:27;;;;;;;12.13;6.30;;;;;;;-2.19;91.18;98875.94;1755508;81;22157;-79
2021/12/02 02:28:55;;;;;;;16.17;6.85;;;;;;;-2.16;91.86;98869.48;1756024;81;21082;-81
2021/12/02 02:31:22;;;;;;;12.07;5.00;;;;;;;-2.17;92.09;98876.79;1755808;81;21070;-80
2021/12/02 02:33:51;;;;;;;11.65;5.37;;;;;;;-2.15;91.89;98872.48;1725077;83;21060;-79
2021/12/02 02:36:20;;;;;;;13.62;6.20;;;;;;;-2.16;92.35;98878.08;1724570;83;21088;-79
2021/12/02 02:38:58;;;;;;;13.43;6.05;;;;;;;-2.14;92.37;98874.18;1756695;81;21503;-79
2021/12/02 02:41:33;;;;;;;13.53;4.70;;;;;;;-2.12;93.11;98872.05;1723797;83;21060;-80
2021/12/02 02:44:00;;;;;;;8.45;4.67;;;;;;;-2.12;93.60;98862.13;1724229;83;21061;-76
2021/12/02 02:46:30;;;;;;;11.45;6.03;;;;;;;-2.11;92.96;98866.44;1755326;81;21056;-75
2021/12/02 02:48:58;;;;;;;10.75;4.95;;;;;;;-2.12;94.14;98862.13;1724197;83;21108;-75
2021/12/02 02:51:24;;;;;;;11.73;5.72;;;;;;;-2.15;93.46;98861.72;1755615;81;21124;-76
2021/12/02 02:53:53;;;;;;;13.58;6.35;;;;;;;-2.16;93.94;98848.86;1724005;83;21101;-74
2021/12/02 02:56:21;;;;;;;10.45;4.65;;;;;;;-2.15;94.28;98853.13;1755539;81;21044;-78
2021/12/02 02:59:01;;;;;;;11.25;5.33;;;;;;;-2.14;94.46;98851.84;1724427;83;21579;-78
2021/12/02 03:07:00;;;;;;;13.28;6.53;;;;;;;-2.11;95.13;98854.84;1711207;83;21671;-77
2021/12/02 03:09:39;;;;;;;12.20;5.03;;;;;;;-2.10;95.48;98850.09;1727447;82;21616;-77
2021/12/02 03:11:57;;;;;;;9.68;4.55;;;;;;;-2.06;95.67;98849.20;1723859;83;21132;-77
2021/12/02 03:14:30;;;;;;;11.22;5.97;;;;;;;-2.06;95.83;98849.20;1726632;83;21053;-78
2021/12/02 03:16:51;;;;;;;13.65;5.85;;;;;;;-2.03;95.97;98840.58;1725174;83;21162;-76
2021/12/02 03:19:28;;;;;;;14.28;7.20;;;;;;;-2.01;96.26;98844.86;1779910;80;21006;-76
2021/12/02 03:21:56;;;;;;;16.87;7.33;;;;;;;-1.99;96.53;98828.94;1779395;80;21080;-76
2021/12/02 03:24:22;;;;;;;16.77;8.53;;;;;;;-1.96;97.08;98825.04;1779687;80;21031;-77
2021/12/02 03:26:49;;;;;;;19.82;8.78;;;;;;;-1.95;97.06;98820.32;1779089;80;20994;-77
2021/12/02 03:29:16;;;;;;;15.63;7.45;;;;;;;-1.90;97.46;98818.55;1779444;80;21166;-77
2021/12/02 03:31:43;;;;;;;22.65;9.38;;;;;;;-1.85;97.99;98815.94;1768464;80;21135;-77
2021/12/02 03:34:10;;;;;;;18.85;9.28;;;;;;;-1.83;97.62;98812.06;1740365;82;21045;-77
2021/12/02 03:36:37;;;;;;;17.35;8.60;;;;;;;-1.78;98.52;98811.59;1739968;82;21030;-78
2021/12/02 03:39:05;;;;;;;22.85;9.73;;;;;;;-1.76;97.56;98817.59;1740720;82;21041;-77
2021/12/02 03:41:34;;;;;;;20.68;10.43;;;;;;;-1.72;97.70;98812.83;1740071;81;21139;-80
2021/12/02 03:44:00;;;;;;;18.85;7.97;;;;;;;-1.69;97.57;98803.76;1764460;80;21085;-77
2021/12/02 03:46:28;;;;;;;20.40;9.50;;;;;;;-1.67;97.42;98801.17;1772046;81;21077;-77
2021/12/02 03:48:54;;;;;;;21.93;10.28;;;;;;;-1.64;97.32;98799.41;1772282;80;21128;-76
2021/12/02 03:51:21;;;;;;;24.47;10.32;;;;;;;-1.59;97.43;98790.33;1771971;81;21556;-77
2021/12/02 03:53:50;;;;;;;22.48;10.68;;;;;;;-1.55;97.48;98785.12;1772126;81;21133;-78
2021/12/02 03:56:17;;;;;;;25.90;9.55;;;;;;;-1.53;97.49;98778.22;1771888;81;21283;-77
2021/12/02 03:58:45;;;;;;;20.15;9.48;;;;;;;-1.52;97.40;98777.36;1772096;80;21041;-78
2021/12/02 04:01:12;;;;;;;22.85;10.58;;;;;;;-1.51;97.29;98785.96;1772145;81;21049;-76
2021/12/02 04:03:39;;;;;;;20.48;11.10;;;;;;;-1.50;97.31;98776.88;1772106;80;21026;-77
2021/12/02 04:06:07;;;;;;;18.65;9.08;;;;;;;-1.48;97.35;98771.27;1772118;81;21551;-76
2021/12/02 04:08:54;;;;;;;24.37;10.98;;;;;;;-1.45;98.02;98775.98;1761496;80;21615;-78
2021/12/02 04:16:20;;;;;;;21.87;11.55;;;;;;;-1.39;96.93;98763.88;1737917;81;21048;-78
2021/12/02 04:18:46;;;;;;;20.70;9.25;;;;;;;-1.36;96.92;98753.94;1737763;82;21113;-78
2021/12/02 04:21:12;;;;;;;23.10;10.85;;;;;;;-1.36;97.02;98744.91;1738160;82;21021;-79
2021/12/02 04:23:39;;;;;;;21.27;9.73;;;;;;;-1.35;97.04;98760.84;1737985;81;21041;-79
2021/12/02 04:26:05;;;;;;;19.90;11.00;;;;;;;-1.33;97.06;98748.77;1738073;82;21638;-79
2021/12/02 04:28:32;;;;;;;21.62;10.32;;;;;;;-1.30;97.06;98743.11;1737619;81;21274;-80
2021/12/02 04:30:58;;;;;;;25.40;11.78;;;;;;;-1.25;97.01;98752.55;1737837;82;21103;-80
2021/12/02 04:33:28;;;;;;;24.43;13.32;;;;;;;-1.22;96.99;98749.50;1779215;80;21041;-79
2021/12/02 04:35:55;;;;;;;19.02;8.23;;;;;;;-1.20;97.20;98732.23;1779656;80;21540;-80
2021/12/02 04:38:21;;;;;;;22.37;9.43;;;;;;;-1.17;96.87;98739.11;1779450;80;21091;-80
2021/12/02 04:40:48;;;;;;;25.92;12.68;;;;;;;-1.15;97.10;98744.67;1779965;80;21536;-80
2021/12/02 04:43:15;;;;;;;29.35;12.37;;;;;;;-1.11;97.08;98737.28;1779604;80;21848;-79
2021/12/02 04:45:41;;;;;;;28.80;13.32;;;;;;;-1.06;97.66;98731.64;1779574;80;21104;-79
2021/12/02 04:48:08;;;;;;;24.43;12.65;;;;;;;-1.02;97.18;98734.18;1779651;80;21086;-79
2021/12/02 04:50:34;;;;;;;24.60;11.88;;;;;;;-0.98;96.71;98730.69;1779427;80;21562;-80
2021/12/02 04:53:01;;;;;;;27.45;13.88;;;;;;;-0.97;96.78;98722.90;1779812;80;21061;-78
2021/12/02 04:55:28;;;;;;;24.47;11.25;;;;;;;-0.94;96.47;98725.91;1779727;80;21162;-79
2021/12/02 04:57:55;;;;;;;26.73;13.72;;;;;;;-0.93;96.54;98709.52;1779298;80;21583;-77
2021/12/02 05:00:21;;;;;;;30.17;10.90;;;;;;;-0.90;96.58;98713.34;1779619;80;21017;-78
2021/12/02 05:02:47;;;;;;;30.20;10.78;;;;;;;-0.90;96.31;98717.22;1779413;80;21076;-75
2021/12/02 05:05:14;;;;;;;24.95;12.53;;;;;;;-0.87;96.47;98702.98;1774808;80;21048;-78
2021/12/02 05:07:40;;;;;;;27.27;13.30;;;;;;;-0.85;96.30;98702.52;1774523;80;21144;-78
2021/12/02 05:10:09;;;;;;;24.77;13.75;;;;;;;-0.78;96.29;98701.56;1774112;80;21548;-81
2021/12/02 05:12:37;;;;;;;29.87;13.45;;;;;;;-0.76;96.59;98707.56;1774695;80;21548;-79
2021/12/02 05:18:54;;;;;;;27.70;13.87;;;;;;;-0.62;96.46;98712.95;1796231;79;23277;-78
2021/12/02 05:21:21;;;;;;;31.65;13.58;;;;;;;-0.65;96.13;98709.53;1756156;81;20962;-81
2021/12/02 05:23:53;;;;;;;28.27;11.88;;;;;;;-0.61;96.49;98709.06;1750599;81;21595;-79
2021/12/02 05:26:17;;;;;;;24.30;13.53;;;;;;;-0.58;95.87;98695.23;1733332;82;21622;-80
2021/12/02 05:28:45;;;;;;;27.02;14.50;;;;;;;-0.57;95.95;98696.51;1725114;82;21344;-81
2021/12/02 05:31:11;;;;;;;26.95;14.23;;;;;;;-0.54;95.78;98698.19;1735792;82;21060;-82
2021/12/02 05:33:38;;;;;;;20.90;11.68;;;;;;;-0.49;95.89;98692.50;1729192;82;21626;-80
2021/12/02 05:36:05;;;;;;;22.85;13.13;;;;;;;-0.46;96.17;98695.03;1734434;82;21747;-81
2021/12/02 05:38:31;;;;;;;27.82;13.60;;;;;;;-0.43;95.75;98697.59;1734566;82;21017;-81
2021/12/02 05:40:58;;;;;;;27.73;13.90;;;;;;;-0.39;96.10;98696.67;1743574;82;21020;-80
2021/12/02 05:43:25;;;;;;;19.07;7.47;;;;;;;-0.37;96.16;98694.89;1743612;82;21624;-79
2021/12/02 05:45:51;;;;;;;25.50;14.25;;;;;;;-0.38;95.78;98707.42;1739631;82;21053;-80
2021/12/02 05:48:17;;;;;;;26.97;12.98;;;;;;;-0.34;96.23;98711.67;1738539;82;21140;-77
2021/12/02 05:50:44;;;;;;;22.95;10.82;;;;;;;-0.31;96.04;98689.63;1728917;82;21045;-76
2021/12/02 05:53:10;;;;;;;23.67;12.60;;;;;;;-0.29;95.83;98683.98;1723476;82;21382;-78
2021/12/02 05:55:36;;;;;;;23.32;13.05;;;;;;;-0.25;95.77;98693.42;1727987;82;21532;-78
2021/12/02 05:58:03;;;;;;;23.73;12.07;;;;;;;-0.21;95.47;98689.03;1724234;82;21198;-76
2021/12/02 06:00:29;;;;;;;21.02;9.20;;;;;;;-0.16;96.12;98698.01;1738025;82;21460;-77
2021/12/02 06:02:58;;;;;;;20.52;11.28;;;;;;;-0.14;95.19;98697.09;1734784;82;21029;-76
2021/12/02 06:05:24;;;;;;;24.98;12.78;;;;;;;-0.11;95.26;98701.40;1734585;82;21596;-78
2021/12/02 06:07:53;;;;;;;19.70;10.23;;;;;;;-0.09;95.44;98706.08;1718283;82;21061;-77
2021/12/02 06:10:20;;;;;;;22.82;11.90;;;;;;;-0.24;95.15;98680.88;1726056;82;21044;-78
2021/12/02 06:12:47;;;;;;;22.20;12.18;;;;;;;-0.02;94.96;98712.89;1681551;85;21172;-78
2021/12/02 06:15:13;;;;;;;23.05;12.82;;;;;;;0.00;94.73;98709.84;1686297;84;21069;-77
2021/12/02 06:17:44;;;;;;;22.32;10.60;;;;;;;0.05;94.92;98701.55;1684067;84;21096;-77
2021/12/02 06:20:13;;;;;;;23.32;12.35;;;;;;;0.07;94.94;98697.20;1682910;84;21128;-77
2021/12/02 06:22:45;;;;;;;23.20;11.45;;;;;;;0.10;95.13;98702.76;1676938;83;21632;-80
2021/12/02 06:27:44;;;;;;;22.70;13.30;;;;;;;0.15;94.88;98701.78;1725231;82;21022;-78
2021/12/02 06:30:12;;;;;;;22.52;11.93;;;;;;;0.17;95.01;98698.73;1712577;82;26646;-78
2021/12/02 06:32:38;;;;;;;24.15;12.03;;;;;;;0.20;96.24;98693.48;1715675;82;21732;-78
2021/12/02 06:35:07;;;;;;;35.68;14.73;;;;;;;0.20;94.83;98701.25;1729539;82;21041;-79
2021/12/02 06:37:34;;;;;;;32.83;14.70;;;;;;;0.26;94.86;98695.58;1709461;82;21146;-77
2021/12/02 06:40:00;;;;;;;25.85;13.93;;;;;;;0.27;95.27;98686.91;1711409;82;21636;-77
2021/12/02 06:42:27;;;;;;;21.40;8.30;;;;;;;0.28;94.63;98695.11;1663670;85;21052;-78
2021/12/02 06:44:53;;;;;;;26.82;12.68;;;;;;;0.30;94.76;98688.14;1675150;84;21156;-78
2021/12/02 06:47:24;;;;;;;26.65;15.35;;;;;;;0.33;94.89;98691.98;1665874;85;21065;-76
2021/12/02 06:49:50;;;;;;;24.20;11.30;;;;;;;0.36;94.90;98689.33;1657339;85;21169;-77
2021/12/02 06:52:17;;;;;;;30.08;14.07;;;;;;;0.36;95.06;98685.45;1678737;84;21114;-75
2021/12/02 06:54:44;;;;;;;29.35;14.90;;;;;;;0.38;95.42;98679.80;1713147;82;21038;-78
2021/12/02 06:57:11;;;;;;;28.70;11.75;;;;;;;0.42;95.50;98685.34;1717442;82;21057;-77
2021/12/02 06:59:39;;;;;;;27.82;13.85;;;;;;;0.43;95.10;98679.27;1715969;82;21067;-78
2021/12/02 07:02:05;;;;;;;18.15;9.63;;;;;;;0.48;95.45;98677.43;1718676;82;21503;-78
2021/12/02 07:04:32;;;;;;;25.37;12.85;;;;;;;0.50;95.07;98668.34;1712375;82;21124;-77
2021/12/02 07:07:00;;;;;;;28.73;15.20;;;;;;;0.54;95.25;98674.73;1724218;82;21081;-77
2021/12/02 07:09:26;;;;;;;24.95;13.62;;;;;;;0.59;95.77;98674.19;1718364;82;21085;-77
2021/12/02 07:11:53;;;;;;;24.55;13.45;;;;;;;0.63;95.67;98675.84;1721531;82;21591;-77
2021/12/02 07:14:21;;;;;;;24.30;13.43;;;;;;;0.67;94.76;98679.66;1719643;82;22112;-76
2021/12/02 07:16:47;;;;;;;23.22;13.88;;;;;;;0.73;94.88;98691.20;1720618;82;21101;-78
2021/12/02 07:19:14;;;;;;;28.27;12.28;;;;;;;0.77;94.75;98676.85;1732072;82;21604;-78
2021/12/02 07:21:41;;;;;;;21.42;12.13;;;;;;;0.83;94.74;98675.89;1723135;82;21110;-77
2021/12/02 07:24:10;;;;;;;30.23;14.07;;;;;;;0.87;94.61;98664.55;1728554;82;21575;-77
2021/12/02 07:26:42;;;;;;;27.58;14.00;;;;;;;0.93;94.64;98681.28;1724391;82;21068;-78
2021/12/02 07:29:08;;;;;;;21.62;11.83;;;;;;;1.00;95.73;98675.07;1725143;82;21611;-78
2021/12/02 07:31:36;;;;;;;26.55;13.38;;;;;;;1.05;94.72;98671.93;1731449;82;21056;-79
2021/12/02 07:34:02;;;;;;;22.50;10.90;;;;;;;1.15;94.12;98676.91;1737950;80;21089;-78
2021/12/02 07:36:30;;;;;;;23.70;11.08;;;;;;;1.18;94.09;98671.68;1727015;82;21060;-78
2021/12/02 07:38:59;;;;;;;22.75;12.65;;;;;;;1.22;93.07;98683.66;1724536;82;21561;-78
2021/12/02 07:41:26;;;;;;;26.25;13.15;;;;;;;1.26;93.60;98673.64;1661410;85;21749;-78
2021/12/02 07:43:53;;;;;;;27.37;13.18;;;;;;;1.31;93.86;98671.82;1726005;82;21092;-78
2021/12/02 07:46:19;;;;;;;25.43;12.05;;;;;;;1.33;93.38;98671.77;1680973;85;21131;-77
2021/12/02 07:48:45;;;;;;;28.38;15.68;;;;;;;1.41;95.54;98677.19;1725647;82;21017;-78
2021/12/02 07:51:15;;;;;;;26.33;12.70;;;;;;;1.44;93.39;98675.81;1737477;82;21477;-78
2021/12/02 07:53:47;;;;;;;15.83;9.23;;;;;;;1.47;92.78;98680.07;1747756;82;21033;-78
2021/12/02 07:56:17;;;;;;;20.77;11.20;;;;;;;1.49;92.72;98678.75;1674423;85;21143;-77
2021/12/02 07:58:46;;;;;;;19.50;10.48;;;;;;;1.54;92.65;98680.78;1701368;82;21593;-78
2021/12/02 08:01:12;;;;;;;23.87;12.43;;;;;;;1.55;92.14;98679.91;1732846;82;21077;-77
2021/12/02 08:03:44;;;;;;;17.32;9.08;;;;;;;1.59;93.03;98693.23;1736185;82;21513;-78
2021/12/02 08:06:08;;;;;;;20.57;9.48;;;;;;;1.58;92.51;98682.42;1729718;82;20998;-78
2021/12/02 08:08:34;;;;;;;21.23;10.45;;;;;;;1.60;92.82;98684.09;1734354;82;21150;-78
2021/12/02 08:11:00;;;;;;;19.57;10.08;;;;;;;1.59;92.76;98684.14;1659724;85;21107;-78
2021/12/02 08:13:30;;;;;;;24.07;12.88;;;;;;;1.62;92.44;98680.17;1727585;82;21548;-77
2021/12/02 08:15:55;;;;;;;22.45;12.80;;;;;;;1.65;93.30;98678.79;1733670;82;21148;-77
2021/12/02 08:18:22;;;;;;;20.88;11.08;;;;;;;1.72;92.96;98681.64;1717579;82;21054;-75
2021/12/02 08:20:49;;;;;;;19.07;10.80;;;;;;;1.72;92.96;98681.64;1656652;85;21132;-73
2021/12/02 08:23:15;;;;;;;24.80;12.60;;;;;;;1.74;92.45;98688.10;1730967;82;21042;-74
2021/12/02 08:25:42;;;;;;;24.92;13.40;;;;;;;1.78;92.83;98679.36;1713778;82;21077;-74
2021/12/02 08:28:09;;;;;;;29.67;14.00;;;;;;;1.85;92.63;98680.45;1723392;82;21826;-74
2021/12/02 08:30:37;;;;;;;28.17;15.40;;;;;;;1.90;92.63;98684.23;1730436;82;21078;-74
2021/12/02 08:33:05;;;;;;;19.30;11.53;;;;;;;1.94;92.96;98678.53;1696384;82;21061;-74
2021/12/02 08:35:34;;;;;;;22.73;12.45;;;;;;;1.98;92.64;98680.13;1700891;82;21070;-74
2021/12/02 08:38:05;;;;;;;26.75;14.35;;;;;;;2.01;92.11;98681.38;1720477;82;21093;-73
2021/12/02 08:40:33;;;;;;;19.80;10.53;;;;;;;2.05;92.30;98670.88;1703860;83;21144;-73
2021/12/02 08:43:03;;;;;;;20.45;11.15;;;;;;;2.09;92.05;98665.13;1715653;82;21554;-74
2021/12/02 08:45:29;;;;;;;23.67;12.63;;;;;;;2.16;93.17;98654.98;1726120;82;21097;-74
2021/12/02 08:47:56;;;;;;;19.52;10.25;;;;;;;2.16;93.17;98642.00;1711692;82;21053;-74
2021/12/02 08:50:23;;;;;;;20.97;11.80;;;;;;;2.26;92.00;98659.06;1690619;82;21105;-75
2021/12/02 08:52:50;;;;;;;22.17;11.12;;;;;;;2.34;91.57;98651.50;1704521;83;21459;-76
2021/12/02 08:55:19;;;;;;;20.02;8.15;;;;;;;2.34;91.57;98651.50;1706543;82;21086;-76
2021/12/02 08:57:46;;;;;;;28.17;13.50;;;;;;;2.35;91.69;98645.40;1713948;82;21022;-77
2021/12/02 09:00:15;;;;;;;23.20;12.82;;;;;;;2.39;93.09;98640.08;1710974;82;21214;-77
2021/12/02 09:02:42;;;;;;;28.25;12.68;;;;;;;2.49;92.36;98640.70;1715541;82;21077;-76
2021/12/02 09:05:09;;;;;;;19.20;9.25;;;;;;;2.55;92.05;98650.90;1717824;77;22749;-75
2021/12/02 09:07:37;;;;;;;24.02;11.90;;;;;;;2.57;93.30;98656.91;1656265;85;22153;-73
2021/12/02 09:10:07;;;;;;;21.07;11.90;;;;;;;2.62;92.02;98655.06;1619744;88;21088;-73
2021/12/02 09:12:34;;;;;;;20.20;11.57;;;;;;;2.67;93.92;98659.67;1619813;88;21093;-73
2021/12/02 09:15:03;;;;;;;22.75;12.33;;;;;;;2.69;91.54;98644.01;1637231;85;21081;-72
2021/12/02 09:17:29;;;;;;;21.27;11.30;;;;;;;2.72;92.01;98640.89;1638737;87;21095;-71
2021/12/02 09:19:55;;;;;;;21.93;10.55;;;;;;;2.76;92.23;98642.09;1636887;87;21105;-74
2021/12/02 09:22:22;;;;;;;21.33;10.00;;;;;;;2.76;91.47;98640.36;1640533;85;21161;-72
2021/12/02 09:24:48;;;;;;;24.43;10.43;;;;;;;2.77;93.29;98641.20;1639861;85;21078;-71
2021/12/02 09:27:15;;;;;;;26.65;12.25;;;;;;;2.76;92.54;98640.78;1645600;85;22158;-74
2021/12/02 09:29:41;;;;;;;23.00;11.68;;;;;;;2.81;93.50;98632.43;1667730;85;21663;-72
2021/12/02 09:32:07;;;;;;;23.25;12.00;;;;;;;2.83;94.75;98626.28;1662019;85;21069;-72
2021/12/02 09:34:34;;;;;;;25.52;11.00;;;;;;;2.80;93.55;98629.41;1670206;85;21555;-75
2021/12/02 09:37:01;;;;;;;22.90;11.12;;;;;;;2.84;99.14;98628.42;1665421;85;21057;-72
2021/12/02 09:39:32;;;;;;;23.35;10.50;;;;;;;2.83;95.06;98635.38;1670899;85;21125;-73
2021/12/02 09:41:59;;;;;;;18.12;10.10;;;;;;;2.83;93.99;98637.98;1669333;85;21321;-72
2021/12/02 09:44:26;;;;;;;26.75;13.85;;;;;;;2.80;95.22;98623.75;1674054;85;21058;-73
2021/12/02 09:46:52;;;;;;;23.50;11.85;;;;;;;2.79;94.06;98616.02;1670458;84;21105;-73
2021/12/02 09:49:20;;;;;;;23.70;12.63;;;;;;;2.77;94.38;98626.45;1674805;85;21061;-72
2021/12/02 09:51:59;;;;;;;25.52;10.58;;;;;;;2.77;95.01;98619.11;1670411;85;21096;-74
2021/12/02 09:54:22;;;;;;;24.80;12.98;;;;;;;2.76;94.49;98612.19;1666251;85;21153;-72
2021/12/02 09:56:50;;;;;;;31.35;14.85;;;;;;;2.80;96.73;98602.11;1671305;85;21042;-73
2021/12/02 09:59:26;;;;;;;29.00;14.90;;;;;;;2.83;95.07;98610.69;1668221;85;21053;-73
2021/12/02 10:01:59;;;;;;;28.70;14.43;;;;;;;2.89;94.86;98618.28;1664506;85;21108;-74
2021/12/02 10:04:25;;;;;;;31.68;16.10;;;;;;;2.93;97.24;98621.66;1673120;85;21148;-73
2021/12/02 10:07:14;;;;;;;33.05;15.35;;;;;;;3.03;95.07;98617.02;1673564;84;21187;-73
2021/12/02 10:09:50;;;;;;;31.95;15.68;;;;;;;3.12;95.57;98616.73;1648058;84;21084;-73
2021/12/02 10:12:17;;;;;;;33.23;16.40;;;;;;;3.18;97.53;98605.30;1680997;84;21025;-73
2021/12/02 10:14:42;;;;;;;33.25;16.02;;;;;;;3.28;95.12;98610.14;1686678;84;21084;-73
2021/12/02 10:17:51;;;;;;;36.90;17.17;;;;;;;3.33;94.02;98612.14;1668317;84;21074;-73
2021/12/02 10:20:18;;;;;;;33.13;16.32;;;;;;;3.33;94.03;98604.80;1677353;84;22025;-74
2021/12/02 10:22:45;;;;;;;34.45;16.12;;;;;;;3.39;94.26;98608.97;1676563;84;21028;-73
2021/12/02 10:25:17;;;;;;;32.67;17.30;;;;;;;3.47;95.91;98610.40;1673085;84;21107;-72
2021/12/02 10:28:07;;;;;;;32.80;17.80;;;;;;;3.49;96.10;98595.59;1655349;85;21057;-72
2021/12/02 10:30:36;;;;;;;32.75;17.57;;;;;;;3.55;95.61;98599.30;1652429;86;21538;-73
2021/12/02 10:33:03;;;;;;;32.30;16.87;;;;;;;3.58;97.38;98592.68;1624245;85;21121;-74
2021/12/02 10:35:45;;;;;;;36.50;16.40;;;;;;;3.60;95.79;98583.98;1656626;85;21104;-74
2021/12/02 10:38:39;;;;;;;32.23;16.23;;;;;;;3.58;94.14;98587.47;1668403;84;21236;-74
2021/12/02 10:41:13;;;;;;;35.00;16.82;;;;;;;3.58;95.86;98579.66;1667314;84;21056;-75
2021/12/02 10:44:17;;;;;;;35.00;17.35;;;;;;;3.60;94.50;98590.03;1668301;84;22200;-74
2021/12/02 10:47:06;;;;;;;32.85;16.12;;;;;;;3.61;94.11;98594.33;1665418;86;21710;-73
2021/12/02 10:49:49;;;;;;;30.15;15.15;;;;;;;3.63;94.92;98585.17;1670616;83;21068;-75
2021/12/02 10:52:27;;;;;;;27.85;15.10;;;;;;;3.64;94.48;98585.59;1671076;84;21109;-75
2021/12/02 10:55:07;;;;;;;27.62;14.73;;;;;;;3.65;94.17;98604.20;1683661;84;21424;-74
2021/12/02 10:57:39;;;;;;;23.00;12.85;;;;;;;3.64;94.90;98596.01;1667995;84;21138;-75
2021/12/02 11:00:09;;;;;;;26.82;14.03;;;;;;;3.73;96.77;98585.28;1675959;84;22152;-74
2021/12/02 11:02:40;;;;;;;22.58;12.03;;;;;;;3.80;93.73;98588.08;1618955;87;21122;-73
2021/12/02 11:05:19;;;;;;;23.85;12.85;;;;;;;3.86;95.34;98585.70;1626927;87;21093;-73
2021/12/02 11:07:42;;;;;;;32.55;14.25;;;;;;;3.89;94.23;98581.25;1640040;86;21092;-74
2021/12/02 11:10:12;;;;;;;23.02;13.03;;;;;;;3.90;93.34;98571.21;1648789;85;21129;-72
2021/12/02 11:12:44;;;;;;;26.57;14.23;;;;;;;3.89;96.56;98576.04;1625883;86;21110;-74
2021/12/02 11:15:17;;;;;;;29.90;14.98;;;;;;;3.88;93.78;98575.63;1623590;87;21051;-74
2021/12/02 11:17:57;;;;;;;26.68;13.75;;;;;;;3.91;93.89;98561.21;1616043;87;21082;-74
2021/12/02 11:20:42;;;;;;;30.32;15.25;;;;;;;3.90;96.12;98563.40;1608300;87;21122;-73
2021/12/02 11:23:13;;;;;;;23.57;13.25;;;;;;;3.92;93.55;98555.08;1598697;88;21117;-74
2021/12/02 11:25:57;;;;;;;28.67;15.38;;;;;;;3.89;93.38;98561.72;1616977;87;21168;-74
2021/12/02 11:28:28;;;;;;;29.23;15.65;;;;;;;3.91;95.14;98566.42;1611820;87;21123;-75
2021/12/02 11:30:58;;;;;;;22.80;13.65;;;;;;;3.92;93.85;98560.30;1613243;88;21162;-75
2021/12/02 11:33:36;;;;;;;29.18;14.70;;;;;;;3.90;93.93;98556.05;1612786;88;21073;-75
2021/12/02 11:36:04;;;;;;;28.35;15.03;;;;;;;3.87;94.91;98549.19;1613178;88;21140;-75
2021/12/02 11:38:32;;;;;;;31.20;15.13;;;;;;;3.87;94.21;98547.05;1597051;88;21122;-75
2021/12/02 11:41:03;;;;;;;29.00;13.55;;;;;;;3.85;94.96;98545.79;1613605;88;22119;-75
2021/12/02 11:43:35;;;;;;;31.77;15.25;;;;;;;3.77;94.26;98553.00;1669463;85;21074;-74
2021/12/02 11:46:05;;;;;;;28.40;14.87;;;;;;;3.72;94.32;98557.53;1641303;87;21067;-72
2021/12/02 11:48:37;;;;;;;30.12;15.80;;;;;;;3.70;95.68;98550.22;1641446;87;21053;-74
2021/12/02 11:51:08;;;;;;;31.42;15.65;;;;;;;3.72;94.97;98549.72;1614909;88;21184;-75
2021/12/02 11:53:37;;;;;;;29.90;14.68;;;;;;;3.73;94.98;98548.38;1639273;87;21119;-73